createdAt,value
2018-12-29T00:02:21.016Z,48.40
2018-12-29T00:05:11.956Z,48.50
2018-12-29T00:08:02.998Z,48.50
2018-12-29T00:10:53.951Z,48.50
2018-12-29T00:13:44.943Z,48.40
2018-12-29T00:16:35.195Z,48.40
2018-12-29T00:19:25.545Z,48.50
2018-12-29T00:22:16.274Z,48.50
2018-12-29T00:25:07.025Z,48.40
2018-12-29T00:27:57.524Z,48.50
2018-12-29T00:30:47.848Z,48.40
2018-12-29T00:33:38.674Z,48.30
2018-12-29T00:36:29.984Z,48.30
2018-12-29T00:39:20.759Z,48.20
2018-12-29T00:42:11.717Z,48.20
2018-12-29T00:45:03.017Z,48.30
2018-12-29T00:47:53.156Z,48.30
2018-12-29T00:50:43.046Z,48.30
2018-12-29T00:53:33.860Z,48.30
2018-12-29T00:56:24.939Z,48.70
2018-12-29T00:59:14.733Z,48.20
2018-12-29T01:02:04.704Z,48.20
2018-12-29T01:04:54.853Z,48.20
2018-12-29T01:07:45.197Z,48.10
2018-12-29T01:10:36.040Z,48.30
2018-12-29T01:13:26.219Z,48.20
2018-12-29T01:16:16.091Z,48.30
2018-12-29T01:19:07.082Z,48.30
2018-12-29T01:21:57.825Z,48.20
2018-12-29T01:24:48.893Z,48.40
2018-12-29T01:27:39.386Z,48.40
2018-12-29T01:30:29.923Z,48.40
2018-12-29T01:33:20.574Z,48.30
2018-12-29T01:36:11.355Z,48.40
2018-12-29T01:39:02.096Z,48.40
2018-12-29T01:41:54.307Z,48.50
2018-12-29T01:44:45.330Z,48.50
2018-12-29T01:47:36.487Z,48.50
2018-12-29T01:50:27.726Z,48.40
2018-12-29T01:53:18.026Z,48.50
2018-12-29T01:56:08.133Z,48.40
2018-12-29T01:58:58.217Z,48.30
2018-12-29T02:01:48.985Z,48.40
2018-12-29T02:04:39.022Z,48.30
2018-12-29T02:07:30.044Z,48.40
2018-12-29T02:10:20.188Z,48.40
2018-12-29T02:13:11.218Z,48.40
2018-12-29T02:16:01.533Z,48.50
2018-12-29T02:18:52.347Z,48.50
2018-12-29T02:21:43.525Z,48.40
2018-12-29T02:24:33.577Z,48.40
2018-12-29T02:27:24.629Z,48.40
2018-12-29T02:30:14.543Z,48.40
2018-12-29T02:33:05.231Z,48.50
2018-12-29T02:35:56.243Z,48.50
2018-12-29T02:38:47.189Z,48.50
2018-12-29T02:41:37.354Z,48.50
2018-12-29T02:44:27.319Z,48.50
2018-12-29T02:47:18.256Z,48.50
2018-12-29T02:50:09.215Z,48.60
2018-12-29T02:53:01.179Z,48.60
2018-12-29T02:55:51.270Z,48.60
2018-12-29T02:58:42.411Z,48.60
2018-12-29T03:01:32.550Z,48.70
2018-12-29T03:04:22.920Z,48.70
2018-12-29T03:07:13.028Z,48.60
2018-12-29T03:10:03.203Z,48.80
2018-12-29T03:12:53.347Z,48.70
2018-12-29T03:15:43.774Z,48.60
2018-12-29T03:18:34.917Z,48.70
2018-12-29T03:21:25.697Z,48.70
2018-12-29T03:24:16.075Z,48.90
2018-12-29T03:27:06.849Z,48.90
2018-12-29T03:29:57.815Z,48.80
2018-12-29T03:32:48.258Z,49.00
2018-12-29T03:35:39.262Z,48.90
2018-12-29T03:38:29.509Z,49.00
2018-12-29T03:41:19.584Z,48.80
2018-12-29T03:44:09.814Z,48.90
2018-12-29T03:47:00.540Z,48.90
2018-12-29T03:49:50.623Z,49.00
2018-12-29T03:52:41.393Z,49.00
2018-12-29T03:55:31.383Z,49.00
2018-12-29T03:58:22.229Z,49.00
2018-12-29T04:01:12.932Z,48.90
2018-12-29T04:04:05.058Z,48.80
2018-12-29T04:06:56.066Z,48.90
2018-12-29T04:09:46.605Z,48.80
2018-12-29T04:12:40.312Z,48.90
2018-12-29T04:15:30.624Z,48.90
2018-12-29T04:18:21.578Z,49.00
2018-12-29T04:21:12.629Z,48.90
2018-12-29T04:24:04.521Z,48.90
2018-12-29T04:26:54.958Z,48.90
2018-12-29T04:29:45.658Z,48.80
2018-12-29T04:32:36.382Z,48.90
2018-12-29T04:35:26.592Z,48.90
2018-12-29T04:38:16.570Z,48.80
2018-12-29T04:41:07.242Z,48.70
2018-12-29T04:43:58.060Z,48.60
2018-12-29T04:46:48.561Z,48.70
2018-12-29T04:49:39.354Z,48.60
2018-12-29T04:52:30.339Z,48.60
2018-12-29T04:55:21.295Z,48.60
2018-12-29T04:58:11.605Z,48.60
2018-12-29T05:01:01.710Z,48.60
2018-12-29T05:03:52.125Z,48.60
2018-12-29T05:06:43.139Z,48.60
2018-12-29T05:09:33.533Z,48.70
2018-12-29T05:12:24.528Z,48.60
2018-12-29T05:15:15.147Z,48.70
2018-12-29T05:18:05.325Z,48.60
2018-12-29T05:20:55.552Z,48.70
2018-12-29T05:23:45.682Z,48.80
2018-12-29T05:26:36.219Z,48.80
2018-12-29T05:29:27.065Z,49.00
2018-12-29T05:32:17.999Z,48.80
2018-12-29T05:35:08.113Z,48.80
2018-12-29T05:37:58.468Z,48.80
2018-12-29T05:40:49.446Z,48.70
2018-12-29T05:43:39.283Z,48.80
2018-12-29T05:46:30.258Z,48.70
2018-12-29T05:49:20.657Z,48.80
2018-12-29T05:52:11.083Z,48.70
2018-12-29T05:55:01.501Z,48.70
2018-12-29T05:57:51.482Z,48.80
2018-12-29T06:00:42.650Z,48.70
2018-12-29T06:03:32.997Z,48.70
2018-12-29T06:06:24.116Z,48.70
2018-12-29T06:09:14.240Z,48.80
2018-12-29T06:12:04.896Z,48.80
2018-12-29T06:14:55.684Z,48.80
2018-12-29T06:17:46.271Z,48.80
2018-12-29T06:20:37.300Z,48.90
2018-12-29T06:23:28.028Z,48.90
2018-12-29T06:26:18.261Z,48.80
2018-12-29T06:29:09.031Z,48.90
2018-12-29T06:32:00.540Z,48.90
2018-12-29T06:34:50.468Z,48.80
2018-12-29T06:37:41.838Z,49.00
2018-12-29T06:40:32.897Z,49.00
2018-12-29T06:43:23.179Z,49.00
2018-12-29T06:46:14.279Z,49.00
2018-12-29T06:49:05.279Z,49.10
2018-12-29T06:51:55.120Z,49.20
2018-12-29T06:54:45.573Z,49.20
2018-12-29T06:57:35.711Z,49.10
2018-12-29T07:00:26.947Z,49.10
2018-12-29T07:03:17.116Z,49.20
2018-12-29T07:06:06.973Z,49.00
2018-12-29T07:08:58.965Z,49.00
2018-12-29T07:11:50.062Z,48.90
2018-12-29T07:14:41.157Z,48.80
2018-12-29T07:17:31.530Z,48.70
2018-12-29T07:20:22.535Z,48.60
2018-12-29T07:23:12.344Z,48.70
2018-12-29T07:26:03.195Z,48.70
2018-12-29T07:28:55.064Z,48.60
2018-12-29T07:31:45.082Z,48.80
2018-12-29T07:34:34.964Z,49.00
2018-12-29T07:37:25.623Z,48.90
2018-12-29T07:40:16.674Z,49.00
2018-12-29T07:43:07.414Z,49.00
2018-12-29T07:45:57.356Z,49.00
2018-12-29T07:48:48.319Z,49.00
2018-12-29T07:51:38.999Z,49.00
2018-12-29T07:54:29.461Z,49.00
2018-12-29T07:57:20.577Z,49.00
2018-12-29T08:00:11.295Z,49.10
2018-12-29T08:03:02.326Z,49.20
2018-12-29T08:05:53.274Z,49.10
2018-12-29T08:08:44.068Z,49.10
2018-12-29T08:11:34.799Z,49.00
2018-12-29T08:14:25.819Z,49.10
2018-12-29T08:17:17.394Z,49.10
2018-12-29T08:20:08.539Z,49.20
2018-12-29T08:22:58.543Z,49.20
2018-12-29T08:25:48.901Z,49.20
2018-12-29T08:28:39.696Z,49.10
2018-12-29T08:31:30.428Z,49.10
2018-12-29T08:34:21.107Z,49.00
2018-12-29T08:37:12.277Z,49.00
2018-12-29T08:40:07.059Z,49.10
2018-12-29T08:42:56.911Z,49.20
2018-12-29T08:45:47.851Z,49.20
2018-12-29T08:48:39.073Z,49.20
2018-12-29T08:51:29.281Z,49.30
2018-12-29T08:54:19.654Z,49.40
2018-12-29T08:57:10.030Z,49.20
2018-12-29T09:00:00.442Z,49.30
2018-12-29T09:02:51.490Z,49.40
2018-12-29T09:05:41.920Z,49.40
2018-12-29T09:08:32.553Z,49.50
2018-12-29T09:11:22.729Z,49.50
2018-12-29T09:14:13.010Z,49.40
2018-12-29T09:17:04.296Z,49.30
2018-12-29T09:19:54.915Z,49.60
2018-12-29T09:22:45.569Z,49.40
2018-12-29T09:25:35.999Z,49.30
2018-12-29T09:28:28.010Z,49.60
2018-12-29T09:31:18.253Z,49.50
2018-12-29T09:34:08.505Z,49.40
2018-12-29T09:36:59.327Z,49.40
2018-12-29T09:39:50.070Z,49.50
2018-12-29T09:42:40.199Z,49.50
2018-12-29T09:45:30.313Z,49.50
2018-12-29T09:48:21.316Z,49.50
2018-12-29T09:51:12.335Z,49.50
2018-12-29T09:54:02.815Z,49.50
2018-12-29T09:56:54.804Z,49.70
2018-12-29T09:59:46.089Z,49.50
2018-12-29T10:02:36.474Z,49.60
2018-12-29T10:05:27.393Z,49.50
2018-12-29T10:08:17.562Z,49.70
2018-12-29T10:11:07.417Z,49.80
2018-12-29T10:13:57.313Z,49.80
2018-12-29T10:16:48.126Z,49.70
2018-12-29T10:19:38.740Z,49.70
2018-12-29T10:22:29.744Z,49.60
2018-12-29T10:25:20.748Z,49.60
2018-12-29T10:28:12.843Z,49.70
2018-12-29T10:31:03.732Z,49.60
2018-12-29T10:33:55.411Z,49.70
2018-12-29T10:36:45.948Z,49.90
2018-12-29T10:39:36.847Z,49.80
2018-12-29T10:42:27.071Z,49.90
2018-12-29T10:45:18.131Z,49.80
2018-12-29T10:48:08.997Z,49.80
2018-12-29T10:50:59.078Z,49.80
2018-12-29T10:53:49.450Z,49.80
2018-12-29T10:56:40.394Z,49.90
2018-12-29T10:59:30.747Z,49.90
2018-12-29T11:02:21.810Z,50.00
2018-12-29T11:05:12.537Z,49.90
2018-12-29T11:08:03.349Z,49.90
2018-12-29T11:10:53.235Z,49.90
2018-12-29T11:13:44.283Z,50.00
2018-12-29T11:16:37.555Z,50.70
2018-12-29T11:19:28.045Z,50.10
2018-12-29T11:22:18.898Z,49.90
2018-12-29T11:25:09.173Z,50.00
2018-12-29T11:28:00.459Z,50.20
2018-12-29T11:30:50.753Z,50.10
2018-12-29T11:33:40.615Z,50.10
2018-12-29T11:36:31.340Z,50.20
2018-12-29T11:39:21.638Z,50.20
2018-12-29T11:42:12.074Z,50.10
2018-12-29T11:45:02.736Z,50.10
2018-12-29T11:47:52.852Z,50.20
2018-12-29T11:50:43.665Z,50.20
2018-12-29T11:53:34.209Z,50.10
2018-12-29T11:56:24.357Z,50.00
2018-12-29T11:59:15.375Z,50.00
2018-12-29T12:02:05.786Z,50.00
2018-12-29T12:04:56.180Z,50.00
2018-12-29T12:07:47.039Z,50.00
2018-12-29T12:10:37.204Z,50.10
2018-12-29T12:13:28.153Z,50.10
2018-12-29T12:16:18.647Z,50.10
2018-12-29T12:19:09.041Z,50.20
2018-12-29T12:21:59.499Z,50.20
2018-12-29T12:24:49.933Z,50.30
2018-12-29T12:27:40.374Z,50.50
2018-12-29T12:30:31.624Z,50.30
2018-12-29T12:33:22.165Z,50.30
2018-12-29T12:36:11.978Z,51.00
2018-12-29T12:39:02.760Z,50.50
2018-12-29T12:41:53.594Z,50.50
2018-12-29T12:44:44.055Z,50.40
2018-12-29T12:47:35.543Z,50.50
2018-12-29T12:50:26.258Z,50.50
2018-12-29T12:53:16.983Z,50.40
2018-12-29T12:56:08.334Z,50.60
2018-12-29T12:58:59.130Z,50.50
2018-12-29T13:01:49.902Z,50.50
2018-12-29T13:04:40.753Z,50.50
2018-12-29T13:07:31.589Z,51.10
2018-12-29T13:10:22.797Z,50.50
2018-12-29T13:13:13.433Z,50.60
2018-12-29T13:16:04.227Z,50.70
2018-12-29T13:18:55.166Z,50.60
2018-12-29T13:21:45.558Z,50.50
2018-12-29T13:24:36.420Z,50.60
2018-12-29T13:27:27.194Z,50.60
2018-12-29T13:30:17.983Z,50.60
2018-12-29T13:33:09.061Z,50.60
2018-12-29T13:35:59.726Z,50.60
2018-12-29T13:38:51.051Z,50.50
2018-12-29T13:41:42.098Z,50.40
2018-12-29T13:44:32.874Z,50.60
2018-12-29T13:47:22.836Z,50.70
2018-12-29T13:50:12.965Z,50.50
2018-12-29T13:53:02.872Z,50.50
2018-12-29T13:55:53.014Z,50.50
2018-12-29T13:58:43.815Z,50.50
2018-12-29T14:01:34.029Z,50.60
2018-12-29T14:04:25.027Z,50.60
2018-12-29T14:07:15.134Z,50.60
2018-12-29T14:10:05.964Z,50.60
2018-12-29T14:12:56.186Z,50.60
2018-12-29T14:15:47.099Z,50.50
2018-12-29T14:18:37.226Z,50.50
2018-12-29T14:21:27.887Z,50.60
2018-12-29T14:24:18.513Z,50.60
2018-12-29T14:27:08.917Z,50.60
2018-12-29T14:29:59.264Z,50.60
2018-12-29T14:32:50.325Z,50.60
2018-12-29T14:35:41.428Z,50.50
2018-12-29T14:38:31.559Z,50.40
2018-12-29T14:41:21.641Z,50.40
2018-12-29T14:44:12.414Z,50.30
2018-12-29T14:47:03.746Z,50.30
2018-12-29T14:49:54.601Z,50.30
2018-12-29T14:52:44.601Z,50.20
2018-12-29T14:55:34.897Z,50.10
2018-12-29T14:58:25.466Z,50.10
2018-12-29T15:01:16.217Z,50.20
2018-12-29T15:04:06.943Z,50.20
2018-12-29T15:06:57.721Z,50.10
2018-12-29T15:09:48.637Z,50.30
2018-12-29T15:12:38.512Z,50.20
2018-12-29T15:15:29.823Z,50.30
2018-12-29T15:18:19.742Z,50.40
2018-12-29T15:21:12.834Z,50.30
2018-12-29T15:24:03.100Z,50.30
2018-12-29T15:26:54.223Z,50.20
2018-12-29T15:29:45.515Z,50.30
2018-12-29T15:32:37.879Z,50.20
2018-12-29T15:35:29.209Z,50.20
2018-12-29T15:38:20.864Z,50.20
2018-12-29T15:41:11.862Z,50.10
2018-12-29T15:44:02.890Z,50.10
2018-12-29T15:46:54.053Z,50.20
2018-12-29T15:49:45.414Z,50.20
2018-12-29T15:52:36.657Z,50.20
2018-12-29T15:55:27.790Z,50.10
2018-12-29T15:58:19.211Z,50.40
2018-12-29T16:01:10.254Z,50.00
2018-12-29T16:04:01.417Z,50.10
2018-12-29T16:06:52.695Z,50.10
2018-12-29T16:09:43.375Z,50.20
2018-12-29T16:12:34.080Z,50.10
2018-12-29T16:15:24.452Z,50.20
2018-12-29T16:18:15.688Z,50.10
2018-12-29T16:21:07.007Z,50.00
2018-12-29T16:23:57.956Z,50.00
2018-12-29T16:26:30.909Z,50.10
2018-12-29T16:29:03.403Z,50.10
2018-12-29T16:31:35.896Z,50.00
2018-12-29T16:34:08.779Z,50.00
2018-12-29T16:36:41.252Z,49.90
2018-12-29T16:39:13.697Z,49.80
2018-12-29T16:41:46.151Z,49.80
2018-12-29T16:44:18.506Z,49.80
2018-12-29T16:46:51.158Z,50.00
2018-12-29T16:49:23.622Z,49.90
2018-12-29T16:51:56.035Z,50.00
2018-12-29T16:54:28.765Z,49.90
2018-12-29T16:57:01.181Z,50.70
2018-12-29T16:59:34.813Z,50.10
2018-12-29T17:02:07.346Z,50.10
2018-12-29T17:04:39.862Z,50.80
2018-12-29T17:07:12.194Z,50.10
2018-12-29T17:09:44.702Z,50.10
2018-12-29T17:12:17.584Z,50.10
2018-12-29T17:14:50.107Z,50.00
2018-12-29T17:17:22.541Z,50.10
2018-12-29T17:19:55.198Z,50.00
2018-12-29T17:22:28.717Z,50.10
2018-12-29T17:25:01.067Z,50.10
2018-12-29T17:27:34.583Z,50.10
2018-12-29T17:30:07.419Z,50.10
2018-12-29T17:32:40.214Z,50.20
2018-12-29T17:35:12.762Z,50.10
2018-12-29T17:37:45.089Z,50.20
2018-12-29T17:40:17.491Z,50.30
2018-12-29T17:42:49.850Z,50.40
2018-12-29T17:45:22.388Z,50.40
2018-12-29T17:47:55.140Z,50.30
2018-12-29T17:50:27.879Z,50.20
2018-12-29T17:53:00.377Z,50.20
2018-12-29T17:55:32.825Z,50.20
2018-12-29T17:58:05.250Z,50.20
2018-12-29T18:00:38.767Z,50.20
2018-12-29T18:03:11.657Z,50.20
2018-12-29T18:05:44.033Z,50.20
2018-12-29T18:08:16.453Z,50.30
2018-12-29T18:10:49.166Z,50.30
2018-12-29T18:13:22.641Z,50.30
2018-12-29T18:15:55.066Z,50.20
2018-12-29T18:18:27.508Z,50.20
2018-12-29T18:20:59.944Z,50.30
2018-12-29T18:23:32.820Z,50.30
2018-12-29T18:26:05.426Z,50.30
2018-12-29T18:28:37.884Z,50.30
2018-12-29T18:31:10.374Z,50.20
2018-12-29T18:33:42.812Z,50.00
2018-12-29T18:36:14.956Z,50.00
2018-12-29T18:38:47.509Z,50.00
2018-12-29T18:41:19.659Z,50.00
2018-12-29T18:43:51.814Z,50.10
2018-12-29T18:46:24.195Z,50.20
2018-12-29T18:48:56.367Z,50.10
2018-12-29T18:51:28.550Z,50.20
2018-12-29T18:54:00.701Z,50.20
2018-12-29T18:56:33.044Z,50.10
2018-12-29T18:59:05.249Z,50.30
2018-12-29T19:01:37.387Z,50.20
2018-12-29T19:04:09.618Z,50.40
2018-12-29T19:06:41.824Z,50.30
2018-12-29T19:09:13.975Z,50.30
2018-12-29T19:11:46.098Z,50.30
2018-12-29T19:14:18.544Z,50.40
2018-12-29T19:16:50.777Z,50.40
2018-12-29T19:19:23.009Z,50.50
2018-12-29T19:21:55.137Z,50.60
2018-12-29T19:24:27.293Z,50.60
2018-12-29T19:26:59.424Z,50.60
2018-12-29T19:29:31.579Z,50.60
2018-12-29T19:32:04.084Z,50.60
2018-12-29T19:34:36.706Z,50.70
2018-12-29T19:37:09.307Z,50.70
2018-12-29T19:39:41.675Z,50.70
2018-12-29T19:42:13.837Z,51.00
2018-12-29T19:44:46.032Z,50.80
2018-12-29T19:47:19.618Z,50.90
2018-12-29T19:49:53.802Z,50.90
2018-12-29T19:52:25.704Z,51.00
2018-12-29T19:54:58.816Z,50.90
2018-12-29T19:57:33.068Z,51.10
2018-12-29T20:00:07.682Z,51.20
2018-12-29T20:02:40.317Z,51.00
2018-12-29T20:05:12.954Z,50.90
2018-12-29T20:07:45.191Z,50.80
2018-12-29T20:10:17.638Z,50.80
2018-12-29T20:12:49.774Z,50.80
2018-12-29T20:15:22.382Z,50.80
2018-12-29T20:17:54.512Z,50.80
2018-12-29T20:20:26.738Z,50.80
2018-12-29T20:22:58.935Z,50.80
2018-12-29T20:25:31.470Z,50.80
2018-12-29T20:28:03.680Z,50.70
2018-12-29T20:30:35.829Z,50.70
2018-12-29T20:33:07.978Z,50.80
2018-12-29T20:35:40.215Z,50.90
2018-12-29T20:38:12.575Z,50.90
2018-12-29T20:40:44.763Z,51.00
2018-12-29T20:43:16.966Z,51.00
2018-12-29T20:45:49.141Z,51.00
2018-12-29T20:48:21.276Z,50.90
2018-12-29T20:50:53.447Z,50.90
2018-12-29T20:53:25.579Z,50.90
2018-12-29T20:55:57.766Z,51.00
2018-12-29T20:58:29.963Z,51.00
2018-12-29T21:01:02.130Z,51.10
2018-12-29T21:03:34.326Z,51.10
2018-12-29T21:06:06.484Z,51.00
2018-12-29T21:08:38.819Z,51.00
2018-12-29T21:11:10.985Z,51.00
2018-12-29T21:13:43.116Z,51.10
2018-12-29T21:16:15.213Z,51.10
2018-12-29T21:18:47.368Z,51.00
2018-12-29T21:21:19.526Z,50.90
2018-12-29T21:23:51.656Z,50.90
2018-12-29T21:26:23.822Z,50.90
2018-12-29T21:28:56.023Z,50.90
2018-12-29T21:31:28.178Z,51.00
2018-12-29T21:34:00.324Z,51.00
2018-12-29T21:36:32.500Z,51.10
2018-12-29T21:39:07.017Z,51.10
2018-12-29T21:41:39.366Z,51.10
2018-12-29T21:44:11.646Z,51.10
2018-12-29T21:46:43.883Z,51.10
2018-12-29T21:49:17.087Z,51.10
2018-12-29T21:51:49.688Z,51.10
2018-12-29T21:54:21.918Z,51.10
2018-12-29T21:56:54.067Z,51.10
2018-12-29T21:59:26.196Z,51.10
2018-12-29T22:01:58.430Z,51.90
2018-12-29T22:04:30.553Z,51.10
2018-12-29T22:07:02.718Z,51.40
2018-12-29T22:09:34.848Z,51.40
2018-12-29T22:12:07.012Z,51.30
2018-12-29T22:14:39.139Z,51.40
2018-12-29T22:17:11.301Z,51.30
2018-12-29T22:19:43.518Z,51.40
2018-12-29T22:22:15.745Z,51.30
2018-12-29T22:24:48.261Z,51.50
2018-12-29T22:27:20.411Z,51.60
2018-12-29T22:29:52.548Z,51.50
2018-12-29T22:32:24.703Z,51.50
2018-12-29T22:34:56.829Z,51.50
2018-12-29T22:37:28.936Z,51.50
2018-12-29T22:40:01.066Z,51.50
2018-12-29T22:42:33.247Z,51.50
2018-12-29T22:45:05.520Z,51.50
2018-12-29T22:47:37.682Z,51.60
2018-12-29T22:50:10.243Z,52.20
2018-12-29T22:52:42.601Z,51.60
2018-12-29T22:55:14.748Z,51.40
2018-12-29T22:57:46.902Z,51.50
2018-12-29T23:00:34.308Z,51.50
2018-12-29T23:03:06.733Z,51.50
2018-12-29T23:05:38.797Z,51.40
2018-12-29T23:08:11.018Z,51.50
2018-12-29T23:10:43.153Z,51.60
2018-12-29T23:13:15.233Z,51.50
2018-12-29T23:15:47.369Z,51.40
2018-12-29T23:18:19.543Z,51.60
2018-12-29T23:20:52.143Z,51.60
2018-12-29T23:23:24.373Z,51.60
2018-12-29T23:25:56.850Z,51.70
2018-12-29T23:28:29.010Z,52.00
2018-12-29T23:31:01.559Z,51.70
2018-12-29T23:33:34.027Z,51.80
2018-12-29T23:36:06.163Z,51.80
2018-12-29T23:38:38.401Z,51.80
2018-12-29T23:41:10.741Z,51.80
2018-12-29T23:43:43.395Z,51.80
2018-12-29T23:46:15.604Z,51.70
2018-12-29T23:48:47.689Z,51.90
2018-12-29T23:51:19.807Z,51.90
2018-12-29T23:53:51.975Z,51.80
2018-12-29T23:56:24.375Z,52.00
2018-12-29T23:58:56.501Z,51.80
